NO-0064 weather

Svenningdal Airstrip
Nordland, Norway

Public forecast

Using degrees Celsius for public forecast. Weather courtesy of forecast.io.

Closest aviation weather report (METAR) to Svenningdal Airstrip

Report is more than 2 hours old.

Closest report is Mosjøen Airport (Kjærstad), 21.0 nm (38.9 km) NNW. Retrieved 2020/07/07 20:50 UTC (2 hours ago):

ENMS 072050Z VRB01KT 9999 FEW040 BKN060 10/05 Q1003 RMK WIND 412FT 23004KT

Closest aviation forecast (TAF) to Svenningdal Airstrip

Forecast is more than 12 hours old.

Closest forecast is Hemavan Airport, 46.9 nm (86.8 km) ENE. Retrieved 2009/10/12 22:40 UTC (11 years ago):

TAF TAF LTCC 122240Z 13 SASN33 ESWI 130020 RRA METAR ESUT 130020Z AUTO 00000KT 9999NDV NCD M08/M10 Q1022